createdAt,value
2018-08-19T00:00:46.004Z,16.73
2018-08-19T00:01:46.014Z,16.70
2018-08-19T00:02:46.030Z,16.80
2018-08-19T00:03:46.141Z,16.70
2018-08-19T00:04:46.056Z,16.67
2018-08-19T00:05:46.063Z,16.76
2018-08-19T00:06:46.085Z,16.73
2018-08-19T00:07:46.096Z,16.74
2018-08-19T00:08:46.209Z,16.76
2018-08-19T00:09:46.111Z,16.74
2018-08-19T00:10:46.138Z,16.70
2018-08-19T00:11:46.140Z,16.69
2018-08-19T00:12:46.141Z,16.81
2018-08-19T00:13:46.311Z,16.73
2018-08-19T00:14:46.159Z,16.67
2018-08-19T00:15:46.193Z,16.70
2018-08-19T00:16:46.204Z,16.74
2018-08-19T00:17:46.217Z,16.74
2018-08-19T00:18:46.478Z,16.72
2018-08-19T00:19:46.240Z,16.73
2018-08-19T00:20:46.253Z,16.77
2018-08-19T00:21:46.316Z,16.70
2018-08-19T00:22:46.272Z,16.70
2018-08-19T00:23:46.291Z,16.67
2018-08-19T00:24:46.454Z,16.67
2018-08-19T00:25:46.321Z,16.72
2018-08-19T00:26:46.328Z,16.69
2018-08-19T00:27:46.340Z,16.76
2018-08-19T00:28:46.357Z,16.73
2018-08-19T00:29:46.361Z,16.65
2018-08-19T00:30:46.521Z,16.66
2018-08-19T00:31:46.386Z,16.67
2018-08-19T00:32:46.402Z,16.67
2018-08-19T00:33:46.411Z,16.58
2018-08-19T00:34:46.424Z,16.72
2018-08-19T00:35:46.437Z,16.70
2018-08-19T00:36:46.597Z,16.63
2018-08-19T00:37:46.464Z,16.66
2018-08-19T00:38:46.474Z,16.67
2018-08-19T00:39:46.464Z,16.65
2018-08-19T00:40:46.497Z,16.57
2018-08-19T00:41:46.611Z,16.55
2018-08-19T00:42:46.523Z,16.62
2018-08-19T00:43:46.520Z,16.62
2018-08-19T00:44:46.547Z,16.67
2018-08-19T00:45:46.563Z,16.69
2018-08-19T00:46:46.820Z,16.63
2018-08-19T00:47:46.584Z,16.65
2018-08-19T00:48:46.601Z,16.65
2018-08-19T00:49:46.607Z,16.67
2018-08-19T00:50:46.617Z,16.59
2018-08-19T00:51:46.787Z,16.59
2018-08-19T00:52:46.645Z,16.72
2018-08-19T00:53:46.658Z,16.66
2018-08-19T00:54:46.675Z,16.63
2018-08-19T00:55:46.684Z,16.67
2018-08-19T00:56:46.844Z,16.63
2018-08-19T00:57:46.705Z,16.70
2018-08-19T00:58:46.720Z,16.63
2018-08-19T00:59:46.714Z,16.65
2018-08-19T01:00:46.755Z,16.66
2018-08-19T01:01:46.856Z,16.59
2018-08-19T01:02:46.775Z,16.69
2018-08-19T01:03:46.786Z,16.58
2018-08-19T01:04:46.794Z,16.52
2018-08-19T01:05:46.788Z,16.57
2018-08-19T01:06:47.068Z,16.51
2018-08-19T01:07:46.829Z,16.52
2018-08-19T01:08:46.842Z,16.48
2018-08-19T01:09:46.838Z,16.44
2018-08-19T01:10:46.868Z,16.36
2018-08-19T01:11:47.036Z,16.34
2018-08-19T01:12:46.872Z,16.29
2018-08-19T01:13:46.880Z,16.27
2018-08-19T01:14:46.914Z,16.33
2018-08-19T01:15:46.928Z,16.33
2018-08-19T01:16:47.024Z,16.33
2018-08-19T01:17:46.955Z,16.25
2018-08-19T01:18:46.966Z,16.34
2018-08-19T01:19:46.975Z,16.29
2018-08-19T01:20:46.984Z,16.29
2018-08-19T01:21:47.157Z,16.29
2018-08-19T01:22:47.113Z,16.33
2018-08-19T01:23:47.007Z,16.27
2018-08-19T01:24:47.042Z,16.40
2018-08-19T01:25:47.054Z,16.37
2018-08-19T01:26:47.312Z,16.37
2018-08-19T01:27:47.077Z,16.39
2018-08-19T01:28:47.085Z,16.27
2018-08-19T01:29:47.104Z,16.32
2018-08-19T01:30:47.109Z,16.30
2018-08-19T01:31:47.276Z,16.30
2018-08-19T01:32:47.135Z,16.39
2018-08-19T01:33:47.150Z,16.40
2018-08-19T01:34:47.165Z,16.39
2018-08-19T01:35:47.174Z,16.42
2018-08-19T01:36:47.330Z,16.45
2018-08-19T01:37:47.174Z,16.51
2018-08-19T01:38:47.207Z,16.39
2018-08-19T01:39:47.224Z,16.37
2018-08-19T01:40:47.228Z,16.37
2018-08-19T01:41:47.470Z,16.40
2018-08-19T01:42:47.260Z,16.37
2018-08-19T01:43:47.268Z,16.29
2018-08-19T01:44:47.304Z,16.32
2018-08-19T01:45:47.276Z,16.22
2018-08-19T01:46:47.461Z,16.18
2018-08-19T01:47:47.319Z,16.21
2018-08-19T01:48:47.328Z,16.29
2018-08-19T01:49:47.327Z,16.17
2018-08-19T01:50:47.359Z,16.29
2018-08-19T01:51:47.360Z,16.25
2018-08-19T01:52:47.629Z,16.29
2018-08-19T01:53:47.384Z,16.30
2018-08-19T01:54:47.396Z,16.13
2018-08-19T01:55:47.412Z,16.29
2018-08-19T01:56:47.430Z,16.14
2018-08-19T01:57:47.686Z,16.25
2018-08-19T01:58:47.447Z,16.26
2018-08-19T01:59:47.464Z,16.26
2018-08-19T02:00:47.476Z,16.29
2018-08-19T02:01:47.485Z,16.32
2018-08-19T02:02:47.653Z,16.40
2018-08-19T02:03:47.512Z,16.39
2018-08-19T02:04:47.521Z,16.37
2018-08-19T02:05:47.541Z,16.45
2018-08-19T02:06:47.543Z,16.36
2018-08-19T02:07:47.657Z,16.37
2018-08-19T02:08:47.550Z,16.37
2018-08-19T02:09:47.582Z,16.34
2018-08-19T02:10:47.592Z,16.34
2018-08-19T02:11:47.615Z,16.32
2018-08-19T02:12:47.768Z,16.30
2018-08-19T02:13:47.632Z,16.30
2018-08-19T02:14:47.649Z,16.33
2018-08-19T02:15:47.641Z,16.29
2018-08-19T02:16:47.713Z,16.25
2018-08-19T02:17:47.932Z,16.29
2018-08-19T02:18:47.672Z,16.21
2018-08-19T02:19:47.688Z,16.27
2018-08-19T02:20:47.730Z,16.32
2018-08-19T02:21:47.728Z,16.32
2018-08-19T02:22:47.869Z,16.30
2018-08-19T02:23:47.752Z,16.29
2018-08-19T02:24:47.765Z,16.32
2018-08-19T02:25:47.752Z,16.34
2018-08-19T02:26:47.787Z,16.34
2018-08-19T02:27:48.055Z,16.37
2018-08-19T02:28:47.808Z,16.40
2018-08-19T02:29:47.831Z,16.34
2018-08-19T02:30:47.846Z,16.33
2018-08-19T02:31:47.849Z,16.32
2018-08-19T02:32:47.961Z,16.34
2018-08-19T02:33:47.859Z,16.33
2018-08-19T02:34:47.885Z,16.32
2018-08-19T02:35:47.895Z,16.32
2018-08-19T02:36:47.913Z,16.21
2018-08-19T02:37:48.073Z,16.34
2018-08-19T02:38:47.930Z,16.22
2018-08-19T02:39:47.921Z,16.33
2018-08-19T02:40:47.963Z,16.27
2018-08-19T02:41:47.971Z,16.29
2018-08-19T02:42:48.130Z,16.32
2018-08-19T02:43:47.999Z,16.32
2018-08-19T02:44:48.002Z,16.34
2018-08-19T02:45:48.018Z,16.36
2018-08-19T02:46:48.035Z,16.34
2018-08-19T02:47:48.192Z,16.33
2018-08-19T02:48:48.052Z,16.37
2018-08-19T02:49:48.069Z,16.44
2018-08-19T02:50:48.060Z,16.40
2018-08-19T02:51:48.090Z,16.42
2018-08-19T02:52:48.204Z,16.40
2018-08-19T02:53:48.120Z,16.39
2018-08-19T02:54:48.130Z,16.44
2018-08-19T02:55:48.140Z,16.45
2018-08-19T02:56:48.154Z,16.42
2018-08-19T02:57:48.319Z,16.47
2018-08-19T02:58:48.179Z,16.45
2018-08-19T02:59:48.185Z,16.44
2018-08-19T03:00:48.204Z,16.45
2018-08-19T03:01:48.198Z,16.48
2018-08-19T03:02:48.372Z,16.44
2018-08-19T03:03:48.243Z,16.39
2018-08-19T03:04:48.252Z,16.39
2018-08-19T03:05:48.260Z,16.39
2018-08-19T03:06:48.274Z,16.37
2018-08-19T03:07:48.433Z,16.30
2018-08-19T03:08:48.295Z,16.32
2018-08-19T03:09:48.309Z,16.32
2018-08-19T03:10:48.322Z,16.25
2018-08-19T03:11:48.333Z,16.21
2018-08-19T03:12:48.347Z,16.18
2018-08-19T03:13:48.485Z,16.25
2018-08-19T03:14:48.351Z,16.25
2018-08-19T03:15:48.385Z,16.17
2018-08-19T03:16:48.395Z,16.21
2018-08-19T03:17:48.385Z,16.14
2018-08-19T03:18:48.570Z,16.25
2018-08-19T03:19:48.429Z,16.10
2018-08-19T03:20:48.439Z,16.13
2018-08-19T03:21:48.457Z,16.08
2018-08-19T03:22:48.471Z,16.08
2018-08-19T03:23:48.577Z,16.08
2018-08-19T03:24:48.475Z,16.16
2018-08-19T03:25:48.507Z,16.04
2018-08-19T03:26:48.514Z,16.07
2018-08-19T03:27:48.529Z,16.07
2018-08-19T03:28:48.688Z,16.10
2018-08-19T03:29:48.551Z,16.08
2018-08-19T03:30:48.560Z,16.06
2018-08-19T03:31:48.582Z,16.02
2018-08-19T03:32:48.568Z,16.02
2018-08-19T03:33:48.698Z,16.06
2018-08-19T03:34:48.613Z,16.11
2018-08-19T03:35:48.622Z,16.11
2018-08-19T03:36:48.636Z,16.16
2018-08-19T03:37:48.700Z,16.17
2018-08-19T03:38:48.807Z,16.11
2018-08-19T03:39:48.655Z,16.13
2018-08-19T03:40:48.683Z,16.10
2018-08-19T03:41:48.696Z,16.14
2018-08-19T03:42:48.687Z,16.11
2018-08-19T03:43:48.868Z,16.13
2018-08-19T03:44:48.728Z,16.13
2018-08-19T03:45:48.742Z,16.10
2018-08-19T03:46:48.758Z,16.13
2018-08-19T03:47:48.750Z,16.13
2018-08-19T03:48:48.878Z,16.16
2018-08-19T03:49:48.788Z,16.18
2018-08-19T03:50:48.801Z,16.21
2018-08-19T03:51:48.808Z,16.18
2018-08-19T03:52:48.823Z,16.22
2018-08-19T03:53:49.092Z,16.21
2018-08-19T03:54:48.853Z,16.22
2018-08-19T03:55:48.858Z,16.18
2018-08-19T03:56:48.875Z,16.13
2018-08-19T03:57:48.892Z,16.14
2018-08-19T03:58:49.064Z,16.10
2018-08-19T03:59:48.892Z,16.16
2018-08-19T04:00:48.920Z,16.13
2018-08-19T04:01:48.940Z,16.11
2018-08-19T04:02:48.948Z,16.13
2018-08-19T04:03:49.115Z,16.11
2018-08-19T04:04:48.970Z,16.11
2018-08-19T04:05:48.980Z,16.25
2018-08-19T04:06:48.991Z,16.22
2018-08-19T04:07:49.005Z,16.26
2018-08-19T04:08:49.119Z,16.22
2018-08-19T04:09:49.028Z,16.17
2018-08-19T04:10:49.040Z,16.18
2018-08-19T04:11:49.032Z,16.21
2018-08-19T04:12:49.062Z,16.18
2018-08-19T04:13:49.234Z,16.16
2018-08-19T04:14:49.088Z,16.17
2018-08-19T04:15:49.100Z,16.13
2018-08-19T04:16:49.113Z,16.21
2018-08-19T04:17:49.122Z,16.21
2018-08-19T04:18:49.269Z,16.18
2018-08-19T04:19:49.147Z,16.13
2018-08-19T04:20:49.163Z,16.22
2018-08-19T04:21:49.172Z,16.11
2018-08-19T04:22:49.179Z,16.10
2018-08-19T04:23:49.297Z,16.14
2018-08-19T04:24:49.215Z,16.16
2018-08-19T04:25:49.217Z,16.16
2018-08-19T04:26:49.233Z,16.13
2018-08-19T04:27:49.246Z,16.21
2018-08-19T04:28:49.387Z,16.22
2018-08-19T04:29:49.250Z,16.22
2018-08-19T04:30:49.274Z,16.21
2018-08-19T04:31:49.271Z,16.26
2018-08-19T04:32:49.306Z,16.29
2018-08-19T04:33:49.315Z,16.25
2018-08-19T04:34:49.477Z,16.32
2018-08-19T04:35:49.340Z,16.32
2018-08-19T04:36:49.348Z,16.32
2018-08-19T04:37:49.368Z,16.32
2018-08-19T04:38:49.380Z,16.30
2018-08-19T04:39:49.423Z,16.32
2018-08-19T04:40:49.559Z,16.32
2018-08-19T04:41:49.414Z,16.34
2018-08-19T04:42:49.419Z,16.33
2018-08-19T04:43:49.443Z,16.33
2018-08-19T04:44:49.431Z,16.25
2018-08-19T04:45:49.611Z,16.29
2018-08-19T04:46:49.479Z,16.30
2018-08-19T04:47:49.492Z,16.17
2018-08-19T04:48:49.493Z,16.32
2018-08-19T04:49:49.507Z,16.18
2018-08-19T04:50:49.777Z,16.21
2018-08-19T04:51:49.514Z,16.25
2018-08-19T04:52:49.547Z,16.18
2018-08-19T04:53:49.558Z,16.16
2018-08-19T04:54:49.574Z,16.25
2018-08-19T04:55:49.717Z,16.26
2018-08-19T04:56:49.594Z,16.21
2018-08-19T04:57:49.586Z,16.26
2018-08-19T04:58:49.615Z,16.21
2018-08-19T04:59:49.635Z,16.22
2018-08-19T05:00:49.785Z,16.21
2018-08-19T05:01:49.652Z,16.11
2018-08-19T05:02:49.670Z,16.18
2018-08-19T05:03:49.673Z,16.21
2018-08-19T05:04:49.686Z,16.22
2018-08-19T05:05:49.848Z,16.21
2018-08-19T05:06:49.695Z,16.18
2018-08-19T05:07:49.756Z,16.21
2018-08-19T05:08:49.740Z,16.21
2018-08-19T05:09:49.729Z,16.26
2018-08-19T05:10:49.913Z,16.18
2018-08-19T05:11:49.774Z,16.11
2018-08-19T05:12:49.792Z,16.13
2018-08-19T05:13:49.791Z,16.07
2018-08-19T05:14:49.812Z,16.08
2018-08-19T05:15:49.973Z,16.16
2018-08-19T05:16:49.825Z,16.16
2018-08-19T05:17:49.841Z,16.07
2018-08-19T05:18:49.857Z,16.14
2018-08-19T05:19:49.872Z,16.08
2018-08-19T05:20:50.030Z,16.10
2018-08-19T05:21:49.891Z,16.06
2018-08-19T05:22:49.879Z,16.13
2018-08-19T05:23:49.911Z,16.08
2018-08-19T05:24:49.926Z,16.06
2018-08-19T05:25:50.087Z,16.04
2018-08-19T05:26:49.957Z,16.02
2018-08-19T05:27:49.951Z,16.04
2018-08-19T05:28:49.971Z,16.13
2018-08-19T05:29:49.981Z,16.13
2018-08-19T05:30:50.146Z,16.11
2018-08-19T05:31:50.013Z,16.06
2018-08-19T05:32:50.017Z,16.08
2018-08-19T05:33:50.033Z,16.06
2018-08-19T05:34:50.045Z,16.06
2018-08-19T05:35:50.187Z,16.06
2018-08-19T05:36:50.082Z,16.02
2018-08-19T05:37:50.080Z,16.04
2018-08-19T05:38:50.092Z,16.06
2018-08-19T05:39:50.108Z,15.99
2018-08-19T05:40:50.267Z,16.04
2018-08-19T05:41:50.132Z,16.08
2018-08-19T05:42:50.145Z,16.11
2018-08-19T05:43:50.153Z,16.06
2018-08-19T05:44:50.164Z,16.08
2018-08-19T05:45:50.325Z,15.98
2018-08-19T05:46:50.183Z,16.04
2018-08-19T05:47:50.194Z,16.13
2018-08-19T05:48:50.208Z,16.08
2018-08-19T05:49:50.222Z,16.13
2018-08-19T05:50:50.396Z,16.11
2018-08-19T05:51:50.247Z,16.08
2018-08-19T05:52:50.259Z,16.06
2018-08-19T05:53:50.270Z,16.16
2018-08-19T05:54:50.285Z,16.16
2018-08-19T05:55:50.295Z,16.02
2018-08-19T05:56:50.458Z,16.10
2018-08-19T05:57:50.313Z,16.02
2018-08-19T05:58:50.329Z,16.08
2018-08-19T05:59:50.338Z,16.00
2018-08-19T06:00:50.349Z,16.07
2018-08-19T06:01:50.366Z,16.14
2018-08-19T06:02:50.537Z,16.13
2018-08-19T06:03:50.394Z,16.14
2018-08-19T06:04:50.396Z,16.07
2018-08-19T06:05:50.392Z,16.11
2018-08-19T06:06:50.427Z,16.17
2018-08-19T06:07:50.591Z,16.04
2018-08-19T06:08:50.448Z,16.16
2018-08-19T06:09:50.443Z,16.06
2018-08-19T06:10:50.483Z,16.08
2018-08-19T06:11:50.488Z,16.04
2018-08-19T06:12:50.647Z,16.04
2018-08-19T06:13:50.506Z,16.07
2018-08-19T06:14:50.521Z,16.07
2018-08-19T06:15:50.570Z,16.00
2018-08-19T06:16:50.544Z,15.96
2018-08-19T06:17:50.710Z,16.06
2018-08-19T06:18:50.549Z,16.04
2018-08-19T06:19:50.577Z,16.04
2018-08-19T06:20:50.571Z,16.02
2018-08-19T06:21:50.659Z,16.11
2018-08-19T06:22:50.764Z,15.99
2018-08-19T06:23:50.632Z,15.95
2018-08-19T06:24:50.632Z,16.00
2018-08-19T06:25:50.650Z,16.00
2018-08-19T06:26:50.662Z,15.99
2018-08-19T06:27:50.829Z,15.95
2018-08-19T06:28:50.682Z,15.93
2018-08-19T06:29:50.677Z,15.95
2018-08-19T06:30:50.706Z,15.88
2018-08-19T06:31:50.723Z,15.84
2018-08-19T06:32:50.862Z,15.91
2018-08-19T06:33:50.742Z,15.83
2018-08-19T06:34:50.919Z,15.88
2018-08-19T06:35:50.774Z,15.89
2018-08-19T06:36:50.780Z,15.88
2018-08-19T06:37:51.033Z,15.84
2018-08-19T06:38:50.802Z,15.80
2018-08-19T06:39:50.809Z,15.75
2018-08-19T06:40:50.827Z,15.80
2018-08-19T06:41:50.833Z,15.75
2018-08-19T06:42:50.994Z,15.73
2018-08-19T06:43:50.838Z,15.71
2018-08-19T06:44:50.854Z,15.63
2018-08-19T06:45:50.877Z,15.70
2018-08-19T06:46:50.892Z,15.67
2018-08-19T06:47:51.052Z,15.73
2018-08-19T06:48:50.910Z,15.68
2018-08-19T06:49:50.926Z,15.67
2018-08-19T06:50:50.944Z,15.65
2018-08-19T06:51:50.951Z,15.68
2018-08-19T06:52:51.096Z,15.73
2018-08-19T06:53:50.976Z,15.70
2018-08-19T06:54:50.983Z,15.70
2018-08-19T06:55:50.997Z,15.65
2018-08-19T06:56:51.008Z,15.70
2018-08-19T06:57:51.167Z,15.62
2018-08-19T06:58:51.030Z,15.65
2018-08-19T06:59:51.042Z,15.67
2018-08-19T07:00:51.049Z,15.67
2018-08-19T07:01:51.066Z,15.65
2018-08-19T07:02:51.229Z,15.63
2018-08-19T07:03:51.261Z,15.60
2018-08-19T07:04:51.101Z,15.68
2018-08-19T07:05:51.119Z,15.62
2018-08-19T07:06:51.122Z,15.75
2018-08-19T07:07:51.279Z,15.74
2018-08-19T07:08:51.120Z,15.78
2018-08-19T07:09:51.152Z,15.83
2018-08-19T07:10:51.147Z,15.70
2018-08-19T07:11:51.180Z,15.80
2018-08-19T07:12:51.346Z,15.84
2018-08-19T07:13:51.182Z,15.75
2018-08-19T07:14:51.221Z,15.78
2018-08-19T07:15:51.230Z,15.71
2018-08-19T07:16:51.237Z,15.84
2018-08-19T07:17:51.245Z,15.86
2018-08-19T07:18:51.409Z,15.77
2018-08-19T07:19:51.273Z,15.73
2018-08-19T07:20:51.280Z,15.81
2018-08-19T07:21:51.290Z,15.70
2018-08-19T07:22:51.307Z,15.75
2018-08-19T07:23:51.422Z,15.81
2018-08-19T07:24:51.459Z,15.74
2018-08-19T07:25:51.340Z,15.74
2018-08-19T07:26:51.360Z,15.71
2018-08-19T07:27:51.347Z,15.63
2018-08-19T07:28:51.378Z,15.71
2018-08-19T07:29:51.656Z,15.68
2018-08-19T07:30:51.409Z,15.63
2018-08-19T07:31:51.416Z,15.68
2018-08-19T07:32:51.422Z,15.71
2018-08-19T07:33:51.432Z,15.65
2018-08-19T07:34:51.599Z,15.70
2018-08-19T07:35:51.455Z,15.63
2018-08-19T07:36:51.515Z,15.68
2018-08-19T07:37:51.459Z,15.73
2018-08-19T07:38:51.472Z,15.67
2018-08-19T07:39:51.657Z,15.63
2018-08-19T07:40:51.515Z,15.73
2018-08-19T07:41:51.513Z,15.62
2018-08-19T07:42:51.541Z,15.63
2018-08-19T07:43:51.561Z,15.73
2018-08-19T07:44:51.711Z,15.67
2018-08-19T07:45:51.549Z,15.67
2018-08-19T07:46:51.583Z,15.68
2018-08-19T07:47:51.600Z,15.71
2018-08-19T07:48:51.605Z,15.67
2018-08-19T07:49:51.784Z,15.63
2018-08-19T07:50:51.616Z,15.70
2018-08-19T07:51:51.644Z,15.68
2018-08-19T07:52:51.647Z,15.63
2018-08-19T07:53:51.661Z,15.67
2018-08-19T07:54:51.824Z,15.59
2018-08-19T07:55:51.688Z,15.67
2018-08-19T07:56:51.698Z,15.70
2018-08-19T07:57:51.709Z,15.63
2018-08-19T07:58:51.722Z,15.67
2018-08-19T07:59:51.889Z,15.63
2018-08-19T08:00:51.749Z,15.68
2018-08-19T08:01:51.757Z,15.65
2018-08-19T08:02:51.772Z,15.73
2018-08-19T08:03:51.763Z,15.70
2018-08-19T08:04:51.934Z,15.70
2018-08-19T08:05:51.806Z,15.63
2018-08-19T08:06:51.809Z,15.67
2018-08-19T08:07:51.824Z,15.67
2018-08-19T08:08:51.831Z,15.63
2018-08-19T08:09:51.952Z,15.62
2018-08-19T08:10:51.879Z,15.67
2018-08-19T08:11:51.871Z,15.58
2018-08-19T08:12:51.889Z,15.55
2018-08-19T08:13:51.955Z,15.55
2018-08-19T08:14:52.155Z,15.62
2018-08-19T08:15:51.920Z,15.55
2018-08-19T08:16:51.926Z,15.60
2018-08-19T08:17:51.917Z,15.62
2018-08-19T08:18:51.948Z,15.62
2018-08-19T08:19:52.217Z,15.60
2018-08-19T08:20:51.954Z,15.65
2018-08-19T08:21:51.980Z,15.58
2018-08-19T08:22:51.996Z,15.56
2018-08-19T08:23:52.006Z,15.65
2018-08-19T08:24:52.205Z,15.51
2018-08-19T08:25:52.009Z,15.56
2018-08-19T08:26:52.047Z,15.49
2018-08-19T08:27:52.062Z,15.51
2018-08-19T08:28:52.065Z,15.45
2018-08-19T08:29:52.224Z,15.52
2018-08-19T08:30:52.087Z,15.45
2018-08-19T08:31:52.101Z,15.49
2018-08-19T08:32:52.115Z,15.49
2018-08-19T08:33:52.121Z,15.45
2018-08-19T08:34:52.288Z,15.44
2018-08-19T08:35:52.130Z,15.59
2018-08-19T08:36:52.160Z,15.44
2018-08-19T08:37:52.171Z,15.49
2018-08-19T08:38:52.163Z,15.52
2018-08-19T08:39:52.343Z,15.49
2018-08-19T08:40:52.197Z,15.51
2018-08-19T08:41:52.211Z,15.51
2018-08-19T08:42:52.220Z,15.45
2018-08-19T08:43:52.237Z,15.49
2018-08-19T08:44:52.231Z,15.47
2018-08-19T08:45:52.413Z,15.38
2018-08-19T08:46:52.267Z,15.37
2018-08-19T08:47:52.361Z,15.43
2018-08-19T08:48:52.292Z,15.38
2018-08-19T08:49:52.305Z,15.37
2018-08-19T08:50:52.298Z,15.35
2018-08-19T08:51:52.476Z,15.40
2018-08-19T08:52:52.344Z,15.49
2018-08-19T08:53:52.347Z,15.37
2018-08-19T08:54:52.367Z,15.37
2018-08-19T08:55:52.375Z,15.49
2018-08-19T08:56:52.628Z,15.44
2018-08-19T08:57:52.402Z,15.44
2018-08-19T08:58:52.404Z,15.37
2018-08-19T08:59:52.418Z,15.40
2018-08-19T09:00:52.435Z,15.38
2018-08-19T09:01:52.591Z,15.49
2018-08-19T09:02:52.461Z,15.40
2018-08-19T09:03:52.464Z,15.44
2018-08-19T09:04:52.474Z,15.55
2018-08-19T09:05:52.487Z,15.49
2018-08-19T09:06:52.745Z,15.43
2018-08-19T09:07:52.514Z,15.47
2018-08-19T09:08:52.518Z,15.44
2018-08-19T09:09:52.532Z,15.45
2018-08-19T09:10:52.540Z,15.55
2018-08-19T09:11:52.704Z,15.58
2018-08-19T09:12:52.564Z,15.49
2018-08-19T09:13:52.598Z,15.45
2018-08-19T09:14:52.582Z,15.53
2018-08-19T09:15:52.613Z,15.53
2018-08-19T09:16:52.860Z,15.45
2018-08-19T09:17:52.619Z,15.49
2018-08-19T09:18:52.640Z,15.53
2018-08-19T09:19:52.668Z,15.47
2018-08-19T09:20:52.654Z,15.55
2018-08-19T09:21:52.821Z,15.44
2018-08-19T09:22:52.701Z,15.53
2018-08-19T09:23:52.692Z,15.51
2018-08-19T09:24:52.680Z,15.45
2018-08-19T09:25:52.691Z,15.56
2018-08-19T09:26:52.982Z,15.55
2018-08-19T09:27:52.740Z,15.59
2018-08-19T09:28:52.752Z,15.47
2018-08-19T09:29:52.755Z,15.45
2018-08-19T09:30:52.766Z,15.45
2018-08-19T09:31:52.931Z,15.51
2018-08-19T09:32:52.824Z,15.52
2018-08-19T09:33:52.799Z,15.45
2018-08-19T09:34:52.810Z,15.51
2018-08-19T09:35:52.825Z,15.47
2018-08-19T09:36:53.087Z,15.55
2018-08-19T09:37:52.836Z,15.51
2018-08-19T09:38:52.847Z,15.38
2018-08-19T09:39:52.871Z,15.38
2018-08-19T09:40:53.027Z,15.38
2018-08-19T09:41:53.002Z,15.40
2018-08-19T09:42:52.911Z,15.38
2018-08-19T09:43:52.926Z,15.41
2018-08-19T09:44:52.932Z,15.44
2018-08-19T09:45:52.932Z,15.31
2018-08-19T09:46:53.082Z,15.40
2018-08-19T09:47:53.132Z,15.40
2018-08-19T09:48:52.974Z,15.40
2018-08-19T09:49:52.984Z,15.38
2018-08-19T09:50:52.990Z,15.37
2018-08-19T09:51:53.160Z,15.49
2018-08-19T09:52:53.001Z,15.37
2018-08-19T09:53:53.035Z,15.47
2018-08-19T09:54:53.039Z,15.38
2018-08-19T09:55:53.057Z,15.45
2018-08-19T09:56:53.211Z,15.34
2018-08-19T09:57:53.076Z,15.38
2018-08-19T09:58:53.068Z,15.38
2018-08-19T09:59:53.081Z,15.35
2018-08-19T10:00:53.117Z,15.37
2018-08-19T10:01:53.228Z,15.38
2018-08-19T10:02:53.139Z,15.35
2018-08-19T10:03:53.154Z,15.35
2018-08-19T10:04:53.157Z,15.38
2018-08-19T10:05:53.172Z,15.35
2018-08-19T10:06:53.315Z,15.37
2018-08-19T10:07:53.280Z,15.40
2018-08-19T10:08:53.205Z,15.41
2018-08-19T10:09:53.214Z,15.45
2018-08-19T10:10:53.224Z,15.40
2018-08-19T10:11:53.216Z,15.38
2018-08-19T10:12:53.397Z,15.40
2018-08-19T10:13:53.263Z,15.44
2018-08-19T10:14:53.272Z,15.52
2018-08-19T10:15:53.280Z,15.37
2018-08-19T10:16:53.297Z,15.37
2018-08-19T10:17:53.397Z,15.40
2018-08-19T10:18:53.583Z,15.38
2018-08-19T10:19:53.324Z,15.35
2018-08-19T10:20:53.342Z,15.45
2018-08-19T10:21:53.352Z,15.43
2018-08-19T10:22:53.362Z,15.47
2018-08-19T10:23:53.507Z,15.38
2018-08-19T10:24:53.387Z,15.38
2018-08-19T10:25:53.394Z,15.43
2018-08-19T10:26:53.391Z,15.41
2018-08-19T10:27:53.427Z,15.47
2018-08-19T10:28:53.558Z,15.37
2018-08-19T10:29:53.422Z,15.38
2018-08-19T10:30:53.452Z,15.43
2018-08-19T10:31:53.463Z,15.43
2018-08-19T10:32:53.474Z,15.37
2018-08-19T10:33:53.742Z,15.40
2018-08-19T10:34:53.501Z,15.41
2018-08-19T10:35:53.515Z,15.45
2018-08-19T10:36:53.520Z,15.53
2018-08-19T10:37:53.535Z,15.51
2018-08-19T10:38:53.699Z,15.51
2018-08-19T10:39:53.551Z,15.51
2018-08-19T10:40:53.570Z,15.49
2018-08-19T10:41:53.579Z,15.55
2018-08-19T10:42:53.597Z,15.58
2018-08-19T10:43:53.734Z,15.53
2018-08-19T10:44:53.613Z,15.65
2018-08-19T10:45:53.629Z,15.67
2018-08-19T10:46:53.637Z,15.73
2018-08-19T10:47:53.648Z,15.65
2018-08-19T10:48:53.808Z,15.73
2018-08-19T10:49:53.670Z,15.73
2018-08-19T10:50:53.681Z,15.80
2018-08-19T10:51:53.698Z,15.77
2018-08-19T10:52:53.702Z,15.89
2018-08-19T10:53:53.873Z,15.81
2018-08-19T10:54:53.714Z,15.89
2018-08-19T10:55:53.745Z,15.86
2018-08-19T10:56:53.757Z,15.84
2018-08-19T10:57:53.774Z,15.91
2018-08-19T10:58:53.934Z,15.89
2018-08-19T10:59:53.846Z,15.89
2018-08-19T11:00:53.801Z,15.89
2018-08-19T11:01:53.814Z,15.93
2018-08-19T11:02:53.832Z,15.95
2018-08-19T11:03:53.991Z,16.00
2018-08-19T11:04:53.844Z,16.02
2018-08-19T11:05:53.862Z,16.00
2018-08-19T11:06:53.873Z,15.99
2018-08-19T11:07:53.891Z,16.02
2018-08-19T11:08:54.057Z,15.95
2018-08-19T11:09:53.909Z,15.96
2018-08-19T11:10:53.922Z,15.96
2018-08-19T11:11:53.935Z,15.98
2018-08-19T11:12:53.948Z,16.04
2018-08-19T11:13:54.090Z,16.00
2018-08-19T11:14:53.971Z,16.07
2018-08-19T11:15:53.988Z,16.08
2018-08-19T11:16:53.999Z,16.13
2018-08-19T11:17:54.008Z,16.16
2018-08-19T11:18:54.173Z,16.17
2018-08-19T11:19:54.036Z,16.13
2018-08-19T11:20:54.062Z,16.21
2018-08-19T11:21:54.057Z,16.29
2018-08-19T11:22:54.069Z,16.30
2018-08-19T11:23:54.232Z,16.34
2018-08-19T11:24:54.078Z,16.42
2018-08-19T11:25:54.116Z,16.44
2018-08-19T11:26:54.119Z,16.42
2018-08-19T11:27:54.140Z,16.51
2018-08-19T11:28:54.278Z,16.55
2018-08-19T11:29:54.157Z,16.63
2018-08-19T11:30:54.174Z,16.69
2018-08-19T11:31:54.181Z,16.66
2018-08-19T11:32:54.196Z,16.73
2018-08-19T11:33:54.272Z,16.70
2018-08-19T11:34:54.375Z,16.72
2018-08-19T11:35:54.236Z,16.76
2018-08-19T11:36:54.248Z,16.73
2018-08-19T11:37:54.261Z,16.80
2018-08-19T11:38:54.265Z,16.84
2018-08-19T11:39:54.288Z,16.88
2018-08-19T11:40:54.452Z,16.90
2018-08-19T11:41:54.325Z,17.00
2018-08-19T11:42:54.325Z,16.99
2018-08-19T11:43:54.339Z,16.92
2018-08-19T11:44:54.356Z,16.81
2018-08-19T11:45:54.520Z,16.84
2018-08-19T11:46:54.384Z,16.87
2018-08-19T11:47:54.397Z,16.97
2018-08-19T11:48:54.488Z,16.91
2018-08-19T11:49:54.429Z,16.99
2018-08-19T11:50:54.687Z,16.99
2018-08-19T11:51:54.453Z,16.99
2018-08-19T11:52:54.464Z,16.95
2018-08-19T11:53:54.476Z,16.91
2018-08-19T11:54:54.500Z,17.09
2018-08-19T11:55:54.608Z,17.13
2018-08-19T11:56:54.520Z,17.22
2018-08-19T11:57:54.515Z,17.20
2018-08-19T11:58:54.531Z,17.22
2018-08-19T11:59:54.558Z,17.13
2018-08-19T12:00:54.860Z,17.12
2018-08-19T12:01:54.627Z,17.20
2018-08-19T12:02:54.602Z,17.18
2018-08-19T12:03:54.617Z,17.21
2018-08-19T12:04:54.623Z,17.17
2018-08-19T12:05:54.790Z,17.25
2018-08-19T12:06:54.651Z,17.24
2018-08-19T12:07:54.678Z,17.24
2018-08-19T12:08:54.684Z,17.40
2018-08-19T12:09:54.702Z,17.42
2018-08-19T12:10:54.867Z,17.49
2018-08-19T12:11:54.731Z,17.62
2018-08-19T12:12:54.752Z,17.65
2018-08-19T12:13:54.735Z,17.80
2018-08-19T12:14:54.772Z,17.92
2018-08-19T12:15:54.917Z,18.08
2018-08-19T12:16:54.811Z,18.31
2018-08-19T12:17:54.818Z,18.27
2018-08-19T12:18:54.824Z,18.42
2018-08-19T12:19:54.846Z,18.54
2018-08-19T12:20:55.008Z,18.51
2018-08-19T12:21:54.872Z,18.57
2018-08-19T12:22:54.887Z,18.51
2018-08-19T12:23:54.913Z,18.54
2018-08-19T12:24:54.916Z,18.41
2018-08-19T12:25:55.064Z,18.42
2018-08-19T12:26:54.954Z,18.27
2018-08-19T12:27:54.996Z,18.23
2018-08-19T12:28:54.982Z,18.29
2018-08-19T12:29:54.993Z,18.14
2018-08-19T12:30:55.167Z,18.11
2018-08-19T12:31:55.032Z,18.23
2018-08-19T12:32:55.042Z,18.34
2018-08-19T12:33:55.058Z,18.27
2018-08-19T12:34:55.054Z,18.50
2018-08-19T12:35:55.224Z,18.63
2018-08-19T12:36:55.109Z,18.86
2018-08-19T12:37:55.128Z,18.97
2018-08-19T12:38:55.141Z,19.12
2018-08-19T12:39:55.152Z,19.16
2018-08-19T12:40:55.423Z,19.20
2018-08-19T12:41:55.169Z,19.34
2018-08-19T12:42:55.203Z,19.43
2018-08-19T12:43:55.221Z,19.53
2018-08-19T12:44:55.384Z,19.47
2018-08-19T12:45:55.249Z,19.57
2018-08-19T12:46:55.425Z,19.71
2018-08-19T12:47:55.291Z,19.80
2018-08-19T12:48:55.316Z,19.95
2018-08-19T12:49:55.322Z,20.26
2018-08-19T12:50:55.338Z,20.32
2018-08-19T12:51:55.490Z,20.27
2018-08-19T12:52:55.377Z,20.30